Time;durP1;ratioP1;P1;durP2;ratioP2;P2;SDS_P1;SDS_P2;PMS_P1;PMS_P2;Temp;Humidity;BMP_temperature;BMP_pressure;BME280_temperature;BME280_humidity;BME280_pressure;Samples;Min_cycle;Max_cycle;Signal;HPM_P1;HPM_P2
2021/05/23 00:01:02;;;;;;;1.27;0.80;;;;;;;8.17;93.53;99603.50;5037170;28;20423;-72
2021/05/23 00:03:29;;;;;;;2.97;0.82;;;;;;;8.24;94.67;99606.66;5036519;28;20387;-72
2021/05/23 00:05:57;;;;;;;1.92;0.70;;;;;;;8.24;94.89;99598.69;5035972;28;20063;-72
2021/05/23 00:08:25;;;;;;;7.65;1.10;;;;;;;8.12;94.53;99585.16;5036788;28;20413;-72
2021/05/23 00:10:59;;;;;;;1.90;0.70;;;;;;;8.16;94.46;99596.47;5037031;28;20049;-72
2021/05/23 00:13:38;;;;;;;2.13;0.82;;;;;;;8.16;94.30;99596.47;5035800;28;20053;-72
2021/05/23 00:16:08;;;;;;;3.13;0.85;;;;;;;8.23;94.65;99596.97;5036948;28;20492;-72
2021/05/23 00:18:38;;;;;;;2.22;0.73;;;;;;;8.21;94.66;99604.16;5036676;28;20079;-71
2021/05/23 00:21:06;;;;;;;1.65;0.80;;;;;;;8.21;95.05;99593.53;5036834;28;20053;-73
2021/05/23 00:23:35;;;;;;;2.47;1.08;;;;;;;8.19;95.22;99606.94;5036509;28;20355;-72
2021/05/23 00:26:02;;;;;;;2.35;0.60;;;;;;;8.19;95.38;99609.59;5035739;28;20050;-73
2021/05/23 00:28:30;;;;;;;1.65;0.75;;;;;;;8.21;95.99;99607.69;5036601;28;20151;-73
2021/05/23 00:30:59;;;;;;;2.78;0.90;;;;;;;8.15;95.35;99600.94;5036537;28;20362;-72
2021/05/23 00:33:25;;;;;;;1.05;0.77;;;;;;;8.19;95.35;99604.28;5018773;28;20049;-73
2021/05/23 00:35:52;;;;;;;3.72;0.80;;;;;;;8.20;94.60;99610.44;5035061;28;20127;-73
2021/05/23 00:38:18;;;;;;;2.28;0.80;;;;;;;8.17;94.92;99602.66;5035991;28;20069;-73
2021/05/23 00:40:45;;;;;;;2.42;0.73;;;;;;;8.15;94.93;99603.59;5035823;28;20450;-72
2021/05/23 00:43:15;;;;;;;1.35;0.70;;;;;;;8.17;94.43;99603.50;5035824;28;20053;-72
2021/05/23 00:45:42;;;;;;;2.78;0.77;;;;;;;8.20;95.18;99608.63;5034614;28;20057;-73
2021/05/23 00:48:08;;;;;;;2.92;0.77;;;;;;;8.23;93.87;99604.94;5034634;28;20088;-71
2021/05/23 00:50:36;;;;;;;2.10;0.77;;;;;;;8.19;94.30;99604.28;5034912;28;20049;-72
2021/05/23 00:53:04;;;;;;;3.95;1.40;;;;;;;8.21;93.89;99591.75;5035490;28;20423;-73
2021/05/23 00:55:31;;;;;;;4.47;1.10;;;;;;;8.27;94.03;99609.97;5034607;28;20519;-72
2021/05/23 00:57:58;;;;;;;1.42;0.60;;;;;;;8.29;94.16;99609.91;5035459;28;20057;-72
2021/05/23 01:00:40;;;;;;;1.58;0.90;;;;;;;8.31;93.74;99612.44;5035790;28;20135;-73
2021/05/23 01:03:45;;;;;;;3.65;0.98;;;;;;;8.29;93.66;99613.41;5035375;28;20438;-72
2021/05/23 01:06:11;;;;;;;1.58;0.93;;;;;;;8.20;93.88;99597.13;5035338;28;20057;-73
2021/05/23 01:08:39;;;;;;;2.08;0.90;;;;;;;8.32;93.84;99611.53;5035314;28;20049;-72
2021/05/23 01:11:08;;;;;;;2.50;1.33;;;;;;;8.33;94.13;99616.72;5035539;28;20099;-72
2021/05/23 01:13:36;;;;;;;3.75;0.90;;;;;;;8.35;94.44;99628.13;5035364;28;20049;-73
2021/05/23 01:16:21;;;;;;;1.30;0.98;;;;;;;8.31;96.21;99623.06;5034854;28;20053;-71
2021/05/23 01:19:15;;;;;;;2.72;1.02;;;;;;;8.39;95.31;99628.81;5046897;28;20385;-71
2021/05/23 01:21:45;;;;;;;4.40;1.02;;;;;;;8.34;95.37;99630.88;5054328;28;20056;-73
2021/05/23 01:24:34;;;;;;;5.72;1.67;;;;;;;8.31;96.58;99636.38;5055176;28;20159;-73
2021/05/23 01:27:01;;;;;;;3.67;1.23;;;;;;;8.25;97.45;99632.28;5055144;28;20146;-72
2021/05/23 01:29:29;;;;;;;6.65;1.33;;;;;;;8.25;98.52;99638.47;5055068;28;20057;-72
2021/05/23 01:31:56;;;;;;;3.42;1.42;;;;;;;8.17;98.65;99624.75;5053859;28;20099;-72
2021/05/23 01:34:23;;;;;;;3.92;1.55;;;;;;;8.12;99.68;99621.53;5055239;28;20045;-71
2021/05/23 01:36:53;;;;;;;4.88;2.00;;;;;;;8.17;99.52;99632.72;5054048;28;20103;-72
2021/05/23 01:39:21;;;;;;;3.10;1.92;;;;;;;8.17;100.00;99635.38;5055103;28;20057;-72
2021/05/23 01:41:49;;;;;;;4.20;2.22;;;;;;;8.20;100.00;99639.66;5055037;28;20052;-73
2021/05/23 01:44:16;;;;;;;5.55;2.10;;;;;;;8.17;100.00;99638.06;5055021;28;20061;-72
2021/05/23 01:46:43;;;;;;;11.10;2.05;;;;;;;8.21;100.00;99636.94;5055062;28;20106;-72
2021/05/23 01:49:10;;;;;;;5.68;1.80;;;;;;;8.19;99.75;99632.66;5054956;28;20500;-73
2021/05/23 01:51:37;;;;;;;5.95;2.03;;;;;;;8.20;100.00;99643.19;5054778;28;20466;-72
2021/05/23 01:54:04;;;;;;;4.85;1.85;;;;;;;8.22;100.00;99638.63;5054545;28;20450;-72
2021/05/23 01:56:31;;;;;;;6.47;2.50;;;;;;;8.21;100.00;99636.06;5053688;28;20095;-72
2021/05/23 01:58:58;;;;;;;5.57;2.50;;;;;;;8.19;100.00;99644.16;5054715;28;20045;-72
2021/05/23 02:01:25;;;;;;;3.72;2.13;;;;;;;8.21;100.00;99636.94;5053588;28;20055;-71
2021/05/23 02:04:00;;;;;;;4.88;2.22;;;;;;;8.16;100.00;99641.66;5054871;28;20396;-72
2021/05/23 02:06:26;;;;;;;4.72;2.20;;;;;;;8.19;100.00;99649.47;5054934;28;20061;-73
2021/05/23 02:08:54;;;;;;;4.35;2.40;;;;;;;8.21;100.00;99647.56;5054710;28;20053;-72
2021/05/23 02:11:20;;;;;;;4.38;2.10;;;;;;;8.20;100.00;99651.19;5054931;28;20102;-73
2021/05/23 02:13:52;;;;;;;4.57;2.22;;;;;;;8.20;100.00;99651.19;5054376;28;20362;-71
2021/05/23 02:16:19;;;;;;;5.03;2.70;;;;;;;8.20;100.00;99650.31;5054777;28;20095;-73
2021/05/23 02:18:46;;;;;;;4.82;3.00;;;;;;;8.22;100.00;99654.59;5043441;28;20054;-72
2021/05/23 02:21:14;;;;;;;3.88;2.33;;;;;;;8.15;100.00;99651.47;5034656;28;20053;-72
2021/05/23 02:23:53;;;;;;;4.28;2.50;;;;;;;8.13;100.00;99644.50;5033993;28;20045;-72
2021/05/23 02:26:21;;;;;;;4.63;2.90;;;;;;;8.18;100.00;99654.88;5035593;28;20061;-72
2021/05/23 02:28:48;;;;;;;3.58;2.75;;;;;;;8.22;100.00;99659.91;5037627;28;20049;-72
2021/05/23 02:31:15;;;;;;;10.85;3.85;;;;;;;8.20;100.00;99664.47;5037177;28;20398;-72
2021/05/23 02:33:42;;;;;;;4.28;3.88;;;;;;;8.20;100.00;99661.81;5038228;28;20099;-72
2021/05/23 02:36:09;;;;;;;5.05;3.85;;;;;;;8.24;100.00;99657.16;5036982;28;20492;-71
2021/05/23 02:38:36;;;;;;;7.78;4.35;;;;;;;8.24;100.00;99665.13;5038196;28;20084;-73
2021/05/23 02:41:03;;;;;;;8.02;4.43;;;;;;;8.22;100.00;99656.41;5037069;28;20077;-72
2021/05/23 02:43:31;;;;;;;8.20;4.82;;;;;;;8.27;100.00;99662.28;5038175;28;20386;-71
2021/05/23 02:46:01;;;;;;;9.50;4.82;;;;;;;8.30;100.00;99670.09;5037142;28;20080;-72
2021/05/23 02:48:27;;;;;;;8.93;5.03;;;;;;;8.31;100.00;99670.94;5037678;28;20053;-73
2021/05/23 02:50:55;;;;;;;6.07;4.80;;;;;;;8.24;100.00;99662.47;5037843;28;20625;-72
2021/05/23 02:53:24;;;;;;;8.18;5.25;;;;;;;8.33;100.00;99671.72;5038053;28;20050;-71
2021/05/23 02:55:51;;;;;;;8.35;5.38;;;;;;;8.34;100.00;99676.09;5036730;28;20057;-72
2021/05/23 02:58:18;;;;;;;7.80;5.47;;;;;;;8.28;100.00;99677.28;5038079;28;20057;-72
2021/05/23 03:00:47;;;;;;;9.88;5.70;;;;;;;8.31;100.00;99673.59;5037786;28;20053;-73
2021/05/23 03:03:14;;;;;;;10.90;6.22;;;;;;;8.31;100.00;99677.13;5037707;28;20423;-72
2021/05/23 03:05:42;;;;;;;6.82;5.45;;;;;;;8.34;100.00;99678.75;5037938;28;20072;-71
2021/05/23 03:08:09;;;;;;;8.57;5.18;;;;;;;8.33;100.00;99682.34;5037879;28;20057;-72
2021/05/23 03:10:43;;;;;;;6.63;4.72;;;;;;;8.31;100.00;99687.75;5037795;28;20053;-72
2021/05/23 03:13:10;;;;;;;5.75;4.70;;;;;;;8.33;100.00;99688.50;5036811;28;20097;-72
2021/05/23 03:15:39;;;;;;;6.78;4.72;;;;;;;8.31;100.00;99678.91;5036309;28;20057;-71
2021/05/23 03:18:07;;;;;;;6.13;4.47;;;;;;;8.31;100.00;99701.06;5043385;28;20056;-71
2021/05/23 03:20:36;;;;;;;4.90;3.55;;;;;;;8.32;100.00;99701.91;5057651;28;20056;-71
2021/05/23 03:23:03;;;;;;;6.10;4.30;;;;;;;8.14;100.00;99684.31;5057099;28;20044;-71
2021/05/23 03:25:31;;;;;;;7.85;3.75;;;;;;;8.21;100.00;99699.88;5057487;28;20053;-71
2021/05/23 03:27:59;;;;;;;7.00;4.10;;;;;;;8.15;100.00;99703.75;5056443;28;20052;-71
2021/05/23 03:30:30;;;;;;;6.97;3.72;;;;;;;8.19;100.00;99721.25;5057050;28;20053;-71
2021/05/23 03:32:57;;;;;;;10.30;3.88;;;;;;;8.12;100.00;99725.22;5056427;28;20422;-71
2021/05/23 03:35:23;;;;;;;8.20;3.72;;;;;;;8.12;100.00;99731.38;5057330;28;20087;-71
2021/05/23 03:37:51;;;;;;;7.22;3.13;;;;;;;8.14;100.00;99736.59;5056030;28;20049;-72
2021/05/23 03:40:19;;;;;;;7.53;3.15;;;;;;;8.06;99.04;99738.84;5056910;28;20049;-72
2021/05/23 03:42:48;;;;;;;9.63;3.05;;;;;;;8.01;98.97;99749.75;5057140;28;20041;-72
2021/05/23 03:45:17;;;;;;;5.57;2.65;;;;;;;7.98;98.06;99747.25;5056996;28;20061;-71
2021/05/23 03:47:44;;;;;;;10.60;2.28;;;;;;;7.86;98.07;99738.19;5057052;28;20393;-72
2021/05/23 03:50:14;;;;;;;7.30;2.20;;;;;;;7.81;98.25;99756.19;5056667;28;20057;-71
2021/05/23 03:52:40;;;;;;;8.75;2.55;;;;;;;7.72;98.21;99763.72;5056666;28;20056;-72
2021/05/23 03:55:11;;;;;;;7.15;2.40;;;;;;;7.71;98.12;99766.47;5056692;28;20064;-72
2021/05/23 03:57:39;;;;;;;10.27;2.55;;;;;;;7.68;97.72;99764.81;5055801;28;20056;-72
2021/05/23 04:00:07;;;;;;;6.00;2.42;;;;;;;7.66;98.24;99771.16;5056625;28;20182;-72
2021/05/23 04:02:34;;;;;;;8.68;2.30;;;;;;;7.71;98.09;99772.63;5056448;28;20057;-73
2021/05/23 04:05:01;;;;;;;7.05;1.88;;;;;;;7.63;98.37;99782.81;5056861;28;20048;-72
2021/05/23 04:07:28;;;;;;;9.52;2.40;;;;;;;7.71;98.55;99793.03;5056326;28;20053;-72
2021/05/23 04:10:00;;;;;;;9.30;2.22;;;;;;;7.70;99.27;99793.97;5056489;28;20060;-72
2021/05/23 04:12:33;;;;;;;9.07;2.55;;;;;;;7.67;99.91;99797.66;5055080;28;20110;-71
2021/05/23 04:15:00;;;;;;;8.25;2.63;;;;;;;7.63;100.00;99796.09;5056354;28;20393;-72
2021/05/23 04:17:28;;;;;;;10.73;2.70;;;;;;;7.63;100.00;99803.22;5054839;28;20415;-72
2021/05/23 04:19:56;;;;;;;5.80;2.55;;;;;;;7.59;100.00;99806.03;5035145;28;20058;-71
2021/05/23 04:22:23;;;;;;;11.45;2.70;;;;;;;7.56;100.00;99800.88;5035993;28;20431;-71
2021/05/23 04:24:50;;;;;;;10.93;3.08;;;;;;;7.57;100.00;99801.75;5035385;28;20107;-72
2021/05/23 04:27:16;;;;;;;7.60;3.30;;;;;;;7.59;100.00;99800.72;5035984;28;20057;-71
2021/05/23 04:29:43;;;;;;;9.80;3.60;;;;;;;7.70;100.00;99808.13;5036363;28;20049;-71
2021/05/23 04:32:10;;;;;;;6.13;3.15;;;;;;;7.68;100.00;99809.13;5034969;28;20053;-71
2021/05/23 04:34:37;;;;;;;7.95;3.80;;;;;;;7.68;100.00;99807.31;5036229;28;20081;-72
2021/05/23 04:37:05;;;;;;;7.40;4.07;;;;;;;7.74;100.00;99803.50;5035766;28;20053;-71
2021/05/23 04:39:32;;;;;;;6.85;3.53;;;;;;;7.67;100.00;99799.47;5036256;28;20053;-72
2021/05/23 04:41:59;;;;;;;8.90;4.47;;;;;;;7.72;100.00;99811.53;5035984;28;20126;-71
2021/05/23 04:44:46;;;;;;;11.48;4.82;;;;;;;7.74;100.00;99814.13;5021337;28;20144;-71
2021/05/23 04:47:12;;;;;;;15.45;4.57;;;;;;;7.74;100.00;99820.28;5035891;28;20060;-71
2021/05/23 04:49:39;;;;;;;10.55;3.85;;;;;;;7.71;100.00;99827.56;5035405;28;20328;-71
2021/05/23 04:52:07;;;;;;;11.25;3.83;;;;;;;7.69;100.00;99827.63;5034748;28;20128;-72
2021/05/23 04:54:35;;;;;;;9.38;3.53;;;;;;;7.74;100.00;99836.22;5035730;28;20045;-71
2021/05/23 04:57:02;;;;;;;9.18;3.58;;;;;;;7.66;100.00;99827.81;5018497;28;20061;-71
2021/05/23 04:59:29;;;;;;;9.48;2.92;;;;;;;7.57;99.72;99817.69;5035641;28;20057;-71
2021/05/23 05:01:56;;;;;;;5.95;2.80;;;;;;;7.59;99.38;99842.38;5035640;28;20053;-71
2021/05/23 05:04:23;;;;;;;9.60;3.90;;;;;;;7.57;100.00;99844.25;5034667;28;20053;-70
2021/05/23 05:06:50;;;;;;;7.22;3.28;;;;;;;7.53;99.19;99846.22;5034347;28;20087;-70
2021/05/23 05:09:16;;;;;;;9.07;3.55;;;;;;;7.53;99.44;99859.50;5035797;28;20061;-71
2021/05/23 05:11:43;;;;;;;8.65;2.92;;;;;;;7.50;99.21;99845.50;5035456;28;20107;-72
2021/05/23 05:14:10;;;;;;;9.90;3.25;;;;;;;7.50;98.48;99846.38;5035504;28;20046;-71
2021/05/23 05:16:39;;;;;;;6.72;2.55;;;;;;;7.48;98.39;99848.25;5035324;28;20419;-71
2021/05/23 05:19:07;;;;;;;13.55;2.67;;;;;;;7.41;98.48;99847.69;5048051;28;20468;-73
2021/05/23 05:21:34;;;;;;;10.13;3.28;;;;;;;7.46;97.77;99858.94;5055478;28;20716;-72
2021/05/23 05:24:02;;;;;;;9.65;3.15;;;;;;;7.49;98.61;99857.94;5055228;28;20075;-71
2021/05/23 05:26:30;;;;;;;12.45;2.70;;;;;;;7.53;98.94;99858.63;5055427;28;20048;-71
2021/05/23 05:28:57;;;;;;;10.85;2.63;;;;;;;7.58;97.90;99864.56;5055243;28;20052;-72
2021/05/23 05:31:24;;;;;;;8.52;2.90;;;;;;;7.54;98.21;99849.72;5054333;28;20049;-73
2021/05/23 05:33:53;;;;;;;7.82;3.35;;;;;;;7.64;99.21;99871.31;5053921;28;20056;-71
2021/05/23 05:36:20;;;;;;;11.43;2.72;;;;;;;7.64;98.61;99866.88;5053944;28;20102;-73
2021/05/23 05:38:48;;;;;;;12.95;2.90;;;;;;;7.66;97.43;99870.31;5054075;28;20146;-71
2021/05/23 05:41:16;;;;;;;12.20;2.70;;;;;;;7.70;98.19;99866.56;5055062;28;20057;-72
2021/05/23 05:43:43;;;;;;;12.55;2.75;;;;;;;7.78;97.94;99867.94;5053997;28;20057;-72
2021/05/23 05:46:10;;;;;;;7.68;2.53;;;;;;;7.83;96.44;99876.50;5054888;28;20131;-72
2021/05/23 05:48:37;;;;;;;9.23;2.60;;;;;;;7.77;95.23;99868.84;5054769;28;20067;-71
2021/05/23 05:51:04;;;;;;;9.80;2.53;;;;;;;7.83;97.32;99882.69;5054681;28;20134;-71
2021/05/23 05:53:31;;;;;;;15.27;3.25;;;;;;;7.87;96.17;99878.06;5054983;28;20067;-73
2021/05/23 05:55:58;;;;;;;11.98;2.55;;;;;;;7.85;95.11;99874.63;5054769;28;20057;-71
2021/05/23 05:58:24;;;;;;;9.00;3.10;;;;;;;7.87;94.98;99892.22;5055384;28;20063;-73
2021/05/23 06:00:51;;;;;;;13.15;3.53;;;;;;;7.86;95.17;99897.59;5055092;28;20059;-76
2021/05/23 06:03:19;;;;;;;8.48;2.63;;;;;;;7.90;95.55;99883.19;5057649;28;20049;-72
2021/05/23 06:05:45;;;;;;;17.05;3.65;;;;;;;7.91;96.29;99890.25;5059046;28;20067;-72
2021/05/23 06:08:12;;;;;;;14.48;3.10;;;;;;;7.94;95.87;99879.44;5058989;28;20075;-78
2021/05/23 06:10:40;;;;;;;14.43;3.03;;;;;;;8.01;94.99;99907.41;5050775;28;20499;-72
2021/05/23 06:13:06;;;;;;;16.77;2.45;;;;;;;8.04;94.36;99893.09;5049139;28;20056;-74
2021/05/23 06:15:34;;;;;;;13.90;2.95;;;;;;;8.11;90.94;99894.47;5050171;28;20084;-72
2021/05/23 06:18:01;;;;;;;16.08;2.78;;;;;;;8.13;91.45;99899.69;5047587;28;20339;-73
2021/05/23 06:20:28;;;;;;;11.27;2.20;;;;;;;8.12;91.50;99898.00;5046278;28;20196;-73
2021/05/23 06:22:54;;;;;;;16.55;2.33;;;;;;;8.17;90.07;99897.72;5048690;28;20076;-71
2021/05/23 06:25:22;;;;;;;13.93;2.35;;;;;;;8.18;89.26;99895.00;5048430;28;20049;-73
2021/05/23 06:27:50;;;;;;;13.55;2.00;;;;;;;8.09;89.76;99893.69;5046200;28;20370;-71
2021/05/23 06:30:17;;;;;;;13.18;2.08;;;;;;;8.21;88.10;99915.22;5048353;28;20133;-72
2021/05/23 06:32:45;;;;;;;8.95;1.98;;;;;;;8.24;88.52;99910.56;5048414;28;20106;-77
2021/05/23 06:35:14;;;;;;;11.40;2.25;;;;;;;8.18;88.87;99896.78;5046842;28;20057;-72
2021/05/23 06:37:42;;;;;;;15.80;1.98;;;;;;;8.32;89.80;99923.47;5054522;28;20072;-72
2021/05/23 06:40:09;;;;;;;16.77;2.70;;;;;;;8.45;91.29;99920.13;5053529;28;20079;-72
2021/05/23 06:42:36;;;;;;;10.60;2.10;;;;;;;8.56;86.64;99933.72;5046080;28;20046;-71
2021/05/23 06:45:03;;;;;;;14.90;2.55;;;;;;;8.56;88.62;99928.41;5047202;28;20067;-75
2021/05/23 06:47:30;;;;;;;12.60;1.95;;;;;;;8.59;86.57;99932.66;5047946;28;20383;-72
2021/05/23 06:49:58;;;;;;;15.60;2.80;;;;;;;8.65;85.06;99948.28;5046962;28;20104;-72
2021/05/23 06:52:26;;;;;;;8.88;2.13;;;;;;;8.72;84.81;99944.31;5045760;28;20049;-77
2021/05/23 06:54:53;;;;;;;10.20;1.88;;;;;;;8.71;84.38;99942.59;5047269;28;20053;-78
2021/05/23 06:57:20;;;;;;;12.27;2.30;;;;;;;8.75;86.25;99940.63;5049349;28;20075;-79
2021/05/23 06:59:47;;;;;;;7.45;1.83;;;;;;;8.75;87.91;99943.28;5047360;28;20049;-77
2021/05/23 07:02:18;;;;;;;10.52;2.03;;;;;;;8.78;84.97;99919.19;5044272;28;20088;-77
2021/05/23 07:04:45;;;;;;;5.65;1.63;;;;;;;8.92;83.36;99940.53;5053214;28;20049;-76
2021/05/23 07:07:18;;;;;;;13.88;1.80;;;;;;;9.02;82.12;99950.63;5052201;28;20072;-76
2021/05/23 07:09:45;;;;;;;12.90;2.70;;;;;;;8.97;82.39;99942.94;5052849;28;20082;-75
2021/05/23 07:12:11;;;;;;;7.65;2.15;;;;;;;8.95;82.02;99929.69;5050893;28;20462;-78
2021/05/23 07:14:42;;;;;;;11.93;2.50;;;;;;;9.04;82.88;99949.59;5047091;28;20053;-78
2021/05/23 07:17:10;;;;;;;8.30;1.50;;;;;;;9.12;82.22;99954.50;5046183;28;20053;-75
2021/05/23 07:19:37;;;;;;;9.40;1.90;;;;;;;9.16;79.57;99941.84;5047772;28;20102;-75
2021/05/23 07:22:04;;;;;;;10.32;1.60;;;;;;;9.26;80.69;99955.50;5038583;28;20048;-77
2021/05/23 07:24:30;;;;;;;7.88;1.70;;;;;;;9.35;78.18;99954.94;5052719;28;20048;-75
2021/05/23 07:26:57;;;;;;;12.65;2.20;;;;;;;9.33;77.12;99963.00;5049073;28;20049;-76
2021/05/23 07:29:24;;;;;;;7.53;2.00;;;;;;;9.36;78.97;99962.84;5043827;28;20045;-75
2021/05/23 07:31:51;;;;;;;9.15;1.98;;;;;;;9.54;79.83;99962.72;5042460;28;20049;-75
2021/05/23 07:34:18;;;;;;;10.50;1.92;;;;;;;9.56;76.96;99955.47;5044630;28;20069;-76
2021/05/23 07:36:45;;;;;;;17.83;1.90;;;;;;;9.59;78.66;99962.44;5037061;28;20049;-76
2021/05/23 07:39:16;;;;;;;10.88;2.42;;;;;;;9.59;77.75;99978.41;5045359;28;20081;-71
2021/05/23 07:41:44;;;;;;;4.93;1.85;;;;;;;9.64;77.54;99973.66;5046316;28;20060;-72
2021/05/23 07:44:11;;;;;;;11.50;1.80;;;;;;;9.63;78.00;99971.94;5045567;28;20082;-72
2021/05/23 07:46:38;;;;;;;13.90;1.92;;;;;;;9.44;74.46;99983.72;5047658;28;20162;-75
2021/05/23 07:49:05;;;;;;;6.38;1.75;;;;;;;9.37;75.61;99980.53;5031081;28;20061;-72
2021/05/23 07:51:35;;;;;;;12.93;1.70;;;;;;;9.40;77.58;99978.63;5044774;28;20049;-75
2021/05/23 07:54:03;;;;;;;8.07;1.55;;;;;;;9.48;76.91;99979.91;5045543;28;20053;-72
2021/05/23 07:56:32;;;;;;;9.68;1.83;;;;;;;9.45;74.01;99964.13;5016716;28;20390;-75
2021/05/23 07:59:01;;;;;;;11.88;1.95;;;;;;;9.47;74.39;99987.97;5027481;28;20116;-76
2021/05/23 08:01:36;;;;;;;8.90;1.63;;;;;;;9.56;74.44;99989.25;5027323;28;20459;-71
2021/05/23 08:04:03;;;;;;;10.35;2.03;;;;;;;9.76;73.17;99988.06;5044032;28;20064;-75
2021/05/23 08:06:31;;;;;;;9.13;1.55;;;;;;;9.79;72.00;99982.53;5043016;28;20048;-74
2021/05/23 08:08:58;;;;;;;10.15;2.22;;;;;;;9.96;72.41;99992.16;5045305;28;20049;-76
2021/05/23 08:11:27;;;;;;;6.95;1.40;;;;;;;10.03;71.24;99995.31;5028145;28;20045;-77
2021/05/23 08:13:54;;;;;;;11.18;1.25;;;;;;;10.17;70.51;99986.44;5042519;28;20358;-72
2021/05/23 08:16:21;;;;;;;6.10;1.30;;;;;;;10.31;70.18;99993.59;5052043;28;20055;-73
2021/05/23 08:18:48;;;;;;;10.07;1.30;;;;;;;10.43;68.44;99992.00;5052118;28;20049;-71
2021/05/23 08:21:15;;;;;;;6.43;1.50;;;;;;;10.31;68.12;99983.78;5038678;28;20430;-71
2021/05/23 08:23:43;;;;;;;7.15;1.33;;;;;;;10.34;67.25;99990.72;5040381;28;20467;-72
2021/05/23 08:26:10;;;;;;;7.57;1.30;;;;;;;10.37;69.35;99981.69;5036684;28;20057;-72
2021/05/23 08:28:37;;;;;;;8.77;1.23;;;;;;;10.51;66.84;100004.88;5046650;28;20048;-76
2021/05/23 08:31:04;;;;;;;7.60;1.77;;;;;;;10.58;67.78;100007.03;5042621;28;20057;-72
2021/05/23 08:33:31;;;;;;;8.05;1.70;;;;;;;10.58;68.05;100006.19;5046752;28;20045;-72
2021/05/23 08:36:01;;;;;;;9.90;1.70;;;;;;;10.71;69.47;100009.78;5044791;28;20057;-74
2021/05/23 08:38:28;;;;;;;4.80;1.10;;;;;;;10.67;66.90;100016.28;5047094;28;20095;-71
2021/05/23 08:40:59;;;;;;;4.75;1.30;;;;;;;10.53;66.45;100016.28;5047247;28;20068;-72
2021/05/23 08:43:27;;;;;;;9.13;1.33;;;;;;;10.46;68.14;100022.00;5047627;28;20050;-72
2021/05/23 08:45:55;;;;;;;5.80;1.45;;;;;;;10.48;67.42;100021.94;5047115;28;20480;-72
2021/05/23 08:48:22;;;;;;;6.38;1.25;;;;;;;10.38;65.85;100032.28;5036142;28;20075;-72
2021/05/23 08:50:49;;;;;;;6.72;1.17;;;;;;;10.44;64.63;100031.06;5036697;28;20053;-73
2021/05/23 08:53:16;;;;;;;6.40;1.42;;;;;;;10.58;67.87;100031.06;5045267;28;20422;-73
2021/05/23 08:55:45;;;;;;;8.82;1.40;;;;;;;10.63;67.38;100030.78;5044766;28;20050;-74
2021/05/23 08:58:12;;;;;;;5.25;1.48;;;;;;;10.67;67.35;100034.13;5041986;28;20057;-73
2021/05/23 09:00:39;;;;;;;7.55;1.50;;;;;;;10.83;68.34;100032.16;5045515;28;20095;-73
2021/05/23 09:03:15;;;;;;;4.55;1.23;;;;;;;10.90;66.89;100029.94;5041423;28;20183;-71
2021/05/23 09:05:48;;;;;;;6.70;1.70;;;;;;;11.14;66.02;100038.19;5042638;28;20046;-72
2021/05/23 09:08:16;;;;;;;5.43;1.45;;;;;;;11.16;65.79;100051.44;5043843;28;20439;-71
2021/05/23 09:10:44;;;;;;;4.35;1.50;;;;;;;11.08;65.81;100045.75;5042502;28;20092;-72
2021/05/23 09:13:13;;;;;;;9.50;1.60;;;;;;;11.11;66.92;100045.56;5045904;28;20412;-72
2021/05/23 09:15:40;;;;;;;7.55;1.30;;;;;;;11.17;67.00;100050.47;5042169;28;20099;-74
2021/05/23 09:18:09;;;;;;;7.18;1.60;;;;;;;10.96;66.14;100048.25;5047016;28;20052;-72
2021/05/23 09:20:42;;;;;;;5.40;1.50;;;;;;;10.94;66.77;100052.84;5040965;28;20336;-72
2021/05/23 09:23:19;;;;;;;4.60;1.23;;;;;;;11.05;66.07;100056.63;5046078;28;20080;-73
2021/05/23 09:25:46;;;;;;;6.82;1.33;;;;;;;11.14;65.97;100056.03;5045618;28;20045;-73
2021/05/23 09:28:13;;;;;;;4.22;1.05;;;;;;;11.25;65.37;100066.88;5045644;28;20049;-72
2021/05/23 09:30:46;;;;;;;4.03;1.17;;;;;;;11.38;63.01;100069.59;5043861;28;20049;-73
2021/05/23 09:33:20;;;;;;;4.75;1.35;;;;;;;11.46;64.99;100065.53;5041834;28;20049;-76
2021/05/23 09:35:47;;;;;;;6.30;1.48;;;;;;;11.28;63.46;100052.47;5039649;28;20092;-79
2021/05/23 09:38:17;;;;;;;5.88;1.10;;;;;;;11.37;62.57;100067.00;5037088;28;20060;-72
2021/05/23 09:40:45;;;;;;;5.90;1.48;;;;;;;11.59;63.18;100066.44;5040594;28;20096;-72
2021/05/23 09:43:21;;;;;;;6.50;1.38;;;;;;;11.79;61.47;100074.94;5035870;28;20053;-74
2021/05/23 09:45:50;;;;;;;4.80;1.02;;;;;;;11.77;59.44;100077.72;5040729;28;20111;-75
2021/05/23 09:48:25;;;;;;;6.20;1.00;;;;;;;11.74;60.32;100079.75;5049886;28;20053;-76
2021/05/23 09:51:00;;;;;;;6.63;1.35;;;;;;;11.96;59.80;100081.81;5047412;28;20064;-79
2021/05/23 09:53:31;;;;;;;5.93;1.27;;;;;;;12.13;54.74;100082.50;5045606;28;20426;-76
2021/05/23 09:56:28;;;;;;;6.97;0.82;;;;;;;12.01;57.55;100093.06;5044781;28;20045;-82
2021/05/23 09:58:55;;;;;;;4.50;1.23;;;;;;;12.05;58.36;100081.22;5037856;28;20385;-71
2021/05/23 10:01:34;;;;;;;6.35;1.35;;;;;;;12.43;59.17;100074.16;5044483;28;20061;-72
2021/05/23 10:04:02;;;;;;;3.03;1.10;;;;;;;12.75;59.97;100086.25;5044574;28;20042;-72
2021/05/23 10:06:30;;;;;;;5.00;1.33;;;;;;;12.83;59.28;100085.69;5042376;28;20049;-72
2021/05/23 10:08:57;;;;;;;5.15;1.20;;;;;;;12.88;57.47;100087.09;5045499;28;20053;-72
2021/05/23 10:11:26;;;;;;;6.15;1.13;;;;;;;12.58;56.12;100090.97;5044035;28;20077;-71
2021/05/23 10:13:55;;;;;;;4.43;1.35;;;;;;;12.41;56.48;100081.44;5044969;28;20049;-72
2021/05/23 10:16:23;;;;;;;8.40;1.45;;;;;;;12.80;58.33;100086.75;5026424;28;20418;-72
2021/05/23 10:18:55;;;;;;;4.80;1.15;;;;;;;13.05;54.72;100087.66;5046570;28;20053;-79
2021/05/23 10:21:22;;;;;;;3.40;1.10;;;;;;;13.14;56.71;100096.88;5039719;28;20052;-72
2021/05/23 10:23:55;;;;;;;2.95;0.90;;;;;;;12.85;54.87;100097.16;5044635;28;20454;-72
2021/05/23 10:26:33;;;;;;;4.55;1.38;;;;;;;12.64;54.95;100100.38;5041965;28;20053;-72
2021/05/23 10:29:02;;;;;;;5.60;1.17;;;;;;;13.09;55.75;100094.53;5045512;28;20052;-72
2021/05/23 10:31:34;;;;;;;4.45;1.10;;;;;;;13.31;53.94;100092.94;5044627;28;20053;-72
2021/05/23 10:34:02;;;;;;;3.85;0.95;;;;;;;13.51;51.72;100098.69;5043537;28;20046;-71
2021/05/23 10:36:37;;;;;;;4.55;1.00;;;;;;;13.61;53.91;100094.34;5044059;28;20143;-72
2021/05/23 10:39:09;;;;;;;6.22;1.13;;;;;;;13.54;52.30;100090.41;5045573;28;20126;-71
2021/05/23 10:41:36;;;;;;;3.13;0.93;;;;;;;13.62;52.64;100096.03;5044134;28;20045;-71
2021/05/23 10:44:24;;;;;;;5.10;1.20;;;;;;;13.45;53.55;100089.22;5047466;28;20543;-73
2021/05/23 10:46:51;;;;;;;3.45;1.10;;;;;;;13.47;52.84;100092.69;5047683;28;20041;-74
2021/05/23 10:49:18;;;;;;;4.95;1.23;;;;;;;13.54;53.43;100096.63;5045694;28;20067;-72
2021/05/23 10:51:53;;;;;;;11.00;1.80;;;;;;;13.65;52.23;100097.66;5048219;28;20063;-72
2021/05/23 10:54:20;;;;;;;2.83;1.10;;;;;;;13.28;55.25;100098.53;5049256;28;20049;-71
2021/05/23 10:57:02;;;;;;;7.95;1.13;;;;;;;13.16;54.42;100095.78;5047893;28;20057;-71
2021/05/23 10:59:30;;;;;;;5.28;1.33;;;;;;;13.02;54.10;100099.47;5046978;28;20055;-73
2021/05/23 11:01:58;;;;;;;4.15;1.10;;;;;;;12.94;55.63;100095.63;5044965;28;20059;-71
2021/05/23 11:04:35;;;;;;;6.88;1.40;;;;;;;13.02;56.61;100095.94;5042937;28;20364;-70
2021/05/23 11:07:12;;;;;;;3.83;1.08;;;;;;;12.93;54.82;100110.84;5046617;28;20049;-71
2021/05/23 11:09:43;;;;;;;5.70;1.08;;;;;;;12.70;55.33;100099.09;5044959;28;20107;-71
2021/05/23 11:12:12;;;;;;;4.72;1.05;;;;;;;12.76;52.13;100094.16;5049980;28;20045;-78
2021/05/23 11:14:39;;;;;;;2.80;1.25;;;;;;;12.71;54.55;100103.50;5050114;28;20048;-73
2021/05/23 11:17:09;;;;;;;4.10;1.05;;;;;;;12.72;54.02;100089.13;5048658;28;20115;-74
2021/05/23 11:19:36;;;;;;;6.80;1.20;;;;;;;13.28;55.69;100103.88;5049004;28;20476;-74
2021/05/23 11:22:07;;;;;;;2.67;1.05;;;;;;;13.69;54.63;100099.97;5050449;28;20130;-71
2021/05/23 11:24:36;;;;;;;5.57;0.98;;;;;;;13.95;50.05;100107.03;5048791;28;20045;-75
2021/05/23 11:27:17;;;;;;;3.00;0.90;;;;;;;13.92;52.67;100096.53;5048685;28;20064;-74
2021/05/23 11:29:50;;;;;;;5.00;1.20;;;;;;;13.78;51.47;100097.59;5047387;28;20139;-73
2021/05/23 11:32:17;;;;;;;3.38;0.80;;;;;;;13.44;51.52;100106.28;5044381;28;20040;-74
2021/05/23 11:34:46;;;;;;;5.38;0.80;;;;;;;13.44;51.02;100088.38;5044142;28;20052;-70
2021/05/23 11:37:13;;;;;;;3.55;0.90;;;;;;;14.07;52.03;100081.09;5040215;28;20045;-73
2021/05/23 11:39:40;;;;;;;5.43;0.90;;;;;;;14.47;49.87;100091.41;5034869;28;20115;-72
2021/05/23 11:42:08;;;;;;;8.25;1.13;;;;;;;14.80;48.78;100087.03;5036609;28;20446;-73